sensor_id;sensor_type;location;lat;lon;timestamp;P1;durP1;ratioP1;P2;durP2;ratioP2
77798;SDS011;66989;50.426;15.352;2023-04-08T00:00:33;18.70;;;11.57;;
77798;SDS011;66989;50.426;15.352;2023-04-08T00:02:59;21.00;;;12.80;;
77798;SDS011;66989;50.426;15.352;2023-04-08T00:05:25;18.13;;;10.95;;
77798;SDS011;66989;50.426;15.352;2023-04-08T00:07:51;19.95;;;11.75;;
77798;SDS011;66989;50.426;15.352;2023-04-08T00:10:16;21.17;;;12.63;;
77798;SDS011;66989;50.426;15.352;2023-04-08T00:12:42;23.48;;;14.52;;
77798;SDS011;66989;50.426;15.352;2023-04-08T00:15:07;19.65;;;11.65;;
77798;SDS011;66989;50.426;15.352;2023-04-08T00:17:35;20.02;;;13.75;;
77798;SDS011;66989;50.426;15.352;2023-04-08T00:20:00;22.60;;;12.70;;
77798;SDS011;66989;50.426;15.352;2023-04-08T00:22:26;20.55;;;12.07;;
77798;SDS011;66989;50.426;15.352;2023-04-08T00:24:51;19.57;;;9.80;;
77798;SDS011;66989;50.426;15.352;2023-04-08T00:27:17;19.05;;;12.07;;
77798;SDS011;66989;50.426;15.352;2023-04-08T00:29:43;19.42;;;10.05;;
77798;SDS011;66989;50.426;15.352;2023-04-08T00:32:08;17.25;;;10.00;;
77798;SDS011;66989;50.426;15.352;2023-04-08T00:34:34;14.10;;;9.15;;
77798;SDS011;66989;50.426;15.352;2023-04-08T00:36:59;17.23;;;11.35;;
77798;SDS011;66989;50.426;15.352;2023-04-08T00:39:25;21.73;;;11.30;;
77798;SDS011;66989;50.426;15.352;2023-04-08T00:41:50;16.70;;;9.55;;
77798;SDS011;66989;50.426;15.352;2023-04-08T00:44:16;12.68;;;7.75;;
77798;SDS011;66989;50.426;15.352;2023-04-08T00:46:41;15.00;;;8.25;;
77798;SDS011;66989;50.426;15.352;2023-04-08T00:49:06;18.23;;;11.23;;
77798;SDS011;66989;50.426;15.352;2023-04-08T00:51:32;14.32;;;8.32;;
77798;SDS011;66989;50.426;15.352;2023-04-08T00:54:00;14.00;;;7.88;;
77798;SDS011;66989;50.426;15.352;2023-04-08T00:56:26;12.80;;;8.27;;
77798;SDS011;66989;50.426;15.352;2023-04-08T00:58:52;12.38;;;7.47;;
77798;SDS011;66989;50.426;15.352;2023-04-08T01:04:16;9.07;;;5.65;;
77798;SDS011;66989;50.426;15.352;2023-04-08T01:06:56;12.85;;;7.63;;
77798;SDS011;66989;50.426;15.352;2023-04-08T01:09:29;12.13;;;7.55;;
77798;SDS011;66989;50.426;15.352;2023-04-08T01:11:57;14.18;;;8.73;;
77798;SDS011;66989;50.426;15.352;2023-04-08T01:14:27;12.43;;;7.90;;
77798;SDS011;66989;50.426;15.352;2023-04-08T01:16:54;10.23;;;6.78;;
77798;SDS011;66989;50.426;15.352;2023-04-08T01:19:33;10.25;;;5.65;;
77798;SDS011;66989;50.426;15.352;2023-04-08T01:22:11;11.05;;;6.18;;
77798;SDS011;66989;50.426;15.352;2023-04-08T01:24:47;12.13;;;7.28;;
77798;SDS011;66989;50.426;15.352;2023-04-08T01:27:17;9.73;;;5.95;;
77798;SDS011;66989;50.426;15.352;2023-04-08T01:29:43;10.55;;;7.20;;
77798;SDS011;66989;50.426;15.352;2023-04-08T01:32:09;10.68;;;6.75;;
77798;SDS011;66989;50.426;15.352;2023-04-08T01:34:37;12.80;;;6.60;;
77798;SDS011;66989;50.426;15.352;2023-04-08T01:37:05;9.73;;;6.18;;
77798;SDS011;66989;50.426;15.352;2023-04-08T01:41:58;9.38;;;5.90;;
77798;SDS011;66989;50.426;15.352;2023-04-08T01:44:26;10.30;;;6.30;;
77798;SDS011;66989;50.426;15.352;2023-04-08T01:46:52;11.38;;;6.82;;
77798;SDS011;66989;50.426;15.352;2023-04-08T01:49:19;13.27;;;6.95;;
77798;SDS011;66989;50.426;15.352;2023-04-08T01:51:46;13.50;;;7.78;;
77798;SDS011;66989;50.426;15.352;2023-04-08T01:54:13;10.80;;;7.07;;
77798;SDS011;66989;50.426;15.352;2023-04-08T01:56:40;9.80;;;6.03;;
77798;SDS011;66989;50.426;15.352;2023-04-08T01:59:09;13.45;;;7.93;;
77798;SDS011;66989;50.426;15.352;2023-04-08T02:01:37;9.13;;;5.97;;
77798;SDS011;66989;50.426;15.352;2023-04-08T02:04:03;11.88;;;7.15;;
77798;SDS011;66989;50.426;15.352;2023-04-08T02:06:29;11.20;;;7.40;;
77798;SDS011;66989;50.426;15.352;2023-04-08T02:08:55;13.85;;;8.40;;
77798;SDS011;66989;50.426;15.352;2023-04-08T02:11:21;12.20;;;7.70;;
77798;SDS011;66989;50.426;15.352;2023-04-08T02:13:47;11.13;;;6.65;;
77798;SDS011;66989;50.426;15.352;2023-04-08T02:16:29;11.55;;;6.60;;
77798;SDS011;66989;50.426;15.352;2023-04-08T02:19:02;15.82;;;10.23;;
77798;SDS011;66989;50.426;15.352;2023-04-08T02:21:39;9.80;;;6.47;;
77798;SDS011;66989;50.426;15.352;2023-04-08T02:24:10;11.70;;;7.60;;
77798;SDS011;66989;50.426;15.352;2023-04-08T02:26:37;12.15;;;7.82;;
77798;SDS011;66989;50.426;15.352;2023-04-08T02:29:04;12.48;;;6.90;;
77798;SDS011;66989;50.426;15.352;2023-04-08T02:31:30;10.63;;;6.10;;
77798;SDS011;66989;50.426;15.352;2023-04-08T02:33:58;13.45;;;9.10;;
77798;SDS011;66989;50.426;15.352;2023-04-08T02:36:24;14.43;;;8.45;;
77798;SDS011;66989;50.426;15.352;2023-04-08T02:38:50;12.15;;;7.85;;
77798;SDS011;66989;50.426;15.352;2023-04-08T02:41:16;9.65;;;6.72;;
77798;SDS011;66989;50.426;15.352;2023-04-08T02:43:41;11.32;;;7.72;;
77798;SDS011;66989;50.426;15.352;2023-04-08T02:46:07;10.32;;;5.90;;
77798;SDS011;66989;50.426;15.352;2023-04-08T02:48:34;9.50;;;5.72;;
77798;SDS011;66989;50.426;15.352;2023-04-08T02:51:00;10.40;;;6.05;;
77798;SDS011;66989;50.426;15.352;2023-04-08T02:53:26;11.43;;;6.45;;
77798;SDS011;66989;50.426;15.352;2023-04-08T02:55:51;10.45;;;6.20;;
77798;SDS011;66989;50.426;15.352;2023-04-08T02:58:16;10.60;;;6.40;;
77798;SDS011;66989;50.426;15.352;2023-04-08T03:00:42;7.93;;;4.72;;
77798;SDS011;66989;50.426;15.352;2023-04-08T03:03:07;10.48;;;6.15;;
77798;SDS011;66989;50.426;15.352;2023-04-08T03:05:33;10.83;;;6.23;;
77798;SDS011;66989;50.426;15.352;2023-04-08T03:07:58;10.63;;;5.57;;
77798;SDS011;66989;50.426;15.352;2023-04-08T03:10:23;8.40;;;4.78;;
77798;SDS011;66989;50.426;15.352;2023-04-08T03:12:49;7.15;;;4.00;;
77798;SDS011;66989;50.426;15.352;2023-04-08T03:15:14;10.93;;;5.68;;
77798;SDS011;66989;50.426;15.352;2023-04-08T03:17:40;9.25;;;5.35;;
77798;SDS011;66989;50.426;15.352;2023-04-08T03:20:07;9.27;;;5.55;;
77798;SDS011;66989;50.426;15.352;2023-04-08T03:22:34;9.75;;;5.60;;
77798;SDS011;66989;50.426;15.352;2023-04-08T03:25:00;9.00;;;4.50;;
77798;SDS011;66989;50.426;15.352;2023-04-08T03:27:25;10.35;;;5.72;;
77798;SDS011;66989;50.426;15.352;2023-04-08T03:29:51;10.15;;;5.72;;
77798;SDS011;66989;50.426;15.352;2023-04-08T03:32:17;10.30;;;6.05;;
77798;SDS011;66989;50.426;15.352;2023-04-08T03:34:42;9.10;;;4.65;;
77798;SDS011;66989;50.426;15.352;2023-04-08T03:37:08;8.55;;;5.18;;
77798;SDS011;66989;50.426;15.352;2023-04-08T03:39:33;11.77;;;6.75;;
77798;SDS011;66989;50.426;15.352;2023-04-08T03:41:59;8.45;;;5.30;;
77798;SDS011;66989;50.426;15.352;2023-04-08T03:44:25;10.65;;;5.93;;
77798;SDS011;66989;50.426;15.352;2023-04-08T03:46:51;11.77;;;6.63;;
77798;SDS011;66989;50.426;15.352;2023-04-08T03:49:16;12.18;;;6.88;;
77798;SDS011;66989;50.426;15.352;2023-04-08T03:51:42;11.40;;;6.07;;
77798;SDS011;66989;50.426;15.352;2023-04-08T03:54:07;8.13;;;4.80;;
77798;SDS011;66989;50.426;15.352;2023-04-08T03:56:32;8.98;;;6.03;;
77798;SDS011;66989;50.426;15.352;2023-04-08T03:58:58;9.10;;;5.50;;
77798;SDS011;66989;50.426;15.352;2023-04-08T04:01:23;12.40;;;8.23;;
77798;SDS011;66989;50.426;15.352;2023-04-08T04:03:48;12.55;;;7.95;;
77798;SDS011;66989;50.426;15.352;2023-04-08T04:06:14;20.40;;;12.77;;
77798;SDS011;66989;50.426;15.352;2023-04-08T04:08:39;19.52;;;11.27;;
77798;SDS011;66989;50.426;15.352;2023-04-08T04:11:05;18.83;;;10.27;;
77798;SDS011;66989;50.426;15.352;2023-04-08T04:13:30;21.93;;;12.10;;
77798;SDS011;66989;50.426;15.352;2023-04-08T04:15:55;20.25;;;10.98;;
77798;SDS011;66989;50.426;15.352;2023-04-08T04:18:21;22.40;;;12.65;;
77798;SDS011;66989;50.426;15.352;2023-04-08T04:20:47;20.65;;;13.05;;
77798;SDS011;66989;50.426;15.352;2023-04-08T04:23:12;22.90;;;12.98;;
77798;SDS011;66989;50.426;15.352;2023-04-08T04:25:41;20.38;;;12.15;;
77798;SDS011;66989;50.426;15.352;2023-04-08T04:28:06;31.05;;;16.27;;
77798;SDS011;66989;50.426;15.352;2023-04-08T04:33:00;23.08;;;13.18;;
77798;SDS011;66989;50.426;15.352;2023-04-08T04:35:26;26.45;;;14.38;;
77798;SDS011;66989;50.426;15.352;2023-04-08T04:37:52;25.95;;;15.43;;
77798;SDS011;66989;50.426;15.352;2023-04-08T04:40:17;34.80;;;18.17;;
77798;SDS011;66989;50.426;15.352;2023-04-08T04:42:44;43.33;;;23.40;;
77798;SDS011;66989;50.426;15.352;2023-04-08T04:45:10;35.50;;;19.13;;
77798;SDS011;66989;50.426;15.352;2023-04-08T04:47:35;34.60;;;18.88;;
77798;SDS011;66989;50.426;15.352;2023-04-08T04:50:00;35.83;;;19.58;;
77798;SDS011;66989;50.426;15.352;2023-04-08T04:52:26;33.63;;;18.70;;
77798;SDS011;66989;50.426;15.352;2023-04-08T04:54:51;37.70;;;19.75;;
77798;SDS011;66989;50.426;15.352;2023-04-08T04:57:17;36.17;;;20.38;;
77798;SDS011;66989;50.426;15.352;2023-04-08T04:59:42;31.58;;;17.77;;
77798;SDS011;66989;50.426;15.352;2023-04-08T05:02:07;33.50;;;19.02;;
77798;SDS011;66989;50.426;15.352;2023-04-08T05:04:33;34.53;;;20.40;;
77798;SDS011;66989;50.426;15.352;2023-04-08T05:06:58;32.10;;;18.33;;
77798;SDS011;66989;50.426;15.352;2023-04-08T05:09:24;35.38;;;21.08;;
77798;SDS011;66989;50.426;15.352;2023-04-08T05:11:50;38.00;;;22.02;;
77798;SDS011;66989;50.426;15.352;2023-04-08T05:14:15;32.83;;;19.17;;
77798;SDS011;66989;50.426;15.352;2023-04-08T05:16:41;35.53;;;20.95;;
77798;SDS011;66989;50.426;15.352;2023-04-08T05:19:06;33.08;;;20.13;;
77798;SDS011;66989;50.426;15.352;2023-04-08T05:21:31;32.03;;;19.20;;
77798;SDS011;66989;50.426;15.352;2023-04-08T05:23:57;27.45;;;16.73;;
77798;SDS011;66989;50.426;15.352;2023-04-08T05:26:22;37.33;;;19.63;;
77798;SDS011;66989;50.426;15.352;2023-04-08T05:28:48;32.97;;;19.75;;
77798;SDS011;66989;50.426;15.352;2023-04-08T05:31:15;33.65;;;20.00;;
77798;SDS011;66989;50.426;15.352;2023-04-08T05:33:42;21.23;;;14.05;;
77798;SDS011;66989;50.426;15.352;2023-04-08T05:36:09;19.67;;;11.98;;
77798;SDS011;66989;50.426;15.352;2023-04-08T05:38:35;30.23;;;16.60;;
77798;SDS011;66989;50.426;15.352;2023-04-08T05:41:01;26.17;;;15.05;;
77798;SDS011;66989;50.426;15.352;2023-04-08T05:43:26;40.35;;;23.05;;
77798;SDS011;66989;50.426;15.352;2023-04-08T05:45:52;26.48;;;16.38;;
77798;SDS011;66989;50.426;15.352;2023-04-08T05:48:17;22.55;;;12.88;;
77798;SDS011;66989;50.426;15.352;2023-04-08T05:50:44;20.80;;;13.80;;
77798;SDS011;66989;50.426;15.352;2023-04-08T05:53:13;23.30;;;14.55;;
77798;SDS011;66989;50.426;15.352;2023-04-08T06:00:30;22.25;;;13.73;;
77798;SDS011;66989;50.426;15.352;2023-04-08T06:02:57;25.27;;;14.65;;
77798;SDS011;66989;50.426;15.352;2023-04-08T06:05:22;23.40;;;13.77;;
77798;SDS011;66989;50.426;15.352;2023-04-08T06:07:47;21.95;;;14.27;;
77798;SDS011;66989;50.426;15.352;2023-04-08T06:10:13;18.73;;;11.03;;
77798;SDS011;66989;50.426;15.352;2023-04-08T06:12:38;26.33;;;14.85;;
77798;SDS011;66989;50.426;15.352;2023-04-08T06:15:05;25.67;;;14.93;;
77798;SDS011;66989;50.426;15.352;2023-04-08T06:17:34;24.83;;;15.50;;
77798;SDS011;66989;50.426;15.352;2023-04-08T06:20:01;25.15;;;14.63;;
77798;SDS011;66989;50.426;15.352;2023-04-08T06:22:27;24.13;;;14.43;;
77798;SDS011;66989;50.426;15.352;2023-04-08T06:24:53;21.58;;;14.05;;
77798;SDS011;66989;50.426;15.352;2023-04-08T06:27:19;18.55;;;11.88;;
77798;SDS011;66989;50.426;15.352;2023-04-08T06:29:45;22.75;;;13.32;;
77798;SDS011;66989;50.426;15.352;2023-04-08T06:32:11;29.85;;;17.48;;
77798;SDS011;66989;50.426;15.352;2023-04-08T06:34:37;18.73;;;11.38;;
77798;SDS011;66989;50.426;15.352;2023-04-08T06:37:02;19.58;;;12.38;;
77798;SDS011;66989;50.426;15.352;2023-04-08T06:39:30;14.70;;;9.60;;
77798;SDS011;66989;50.426;15.352;2023-04-08T06:41:55;18.30;;;12.52;;
77798;SDS011;66989;50.426;15.352;2023-04-08T06:44:22;48.45;;;28.00;;
77798;SDS011;66989;50.426;15.352;2023-04-08T06:46:47;96.38;;;55.22;;
77798;SDS011;66989;50.426;15.352;2023-04-08T06:49:14;68.37;;;39.63;;
77798;SDS011;66989;50.426;15.352;2023-04-08T06:51:42;35.00;;;20.20;;
77798;SDS011;66989;50.426;15.352;2023-04-08T06:54:08;30.83;;;18.50;;
77798;SDS011;66989;50.426;15.352;2023-04-08T06:56:36;24.23;;;13.95;;
77798;SDS011;66989;50.426;15.352;2023-04-08T06:59:03;21.27;;;13.15;;
77798;SDS011;66989;50.426;15.352;2023-04-08T07:01:31;22.63;;;13.25;;
77798;SDS011;66989;50.426;15.352;2023-04-08T07:03:57;16.52;;;11.30;;
77798;SDS011;66989;50.426;15.352;2023-04-08T07:06:22;15.52;;;10.55;;
77798;SDS011;66989;50.426;15.352;2023-04-08T07:08:48;12.82;;;8.20;;
77798;SDS011;66989;50.426;15.352;2023-04-08T07:11:14;14.27;;;9.40;;
77798;SDS011;66989;50.426;15.352;2023-04-08T07:13:40;15.63;;;10.88;;
77798;SDS011;66989;50.426;15.352;2023-04-08T07:16:05;14.13;;;10.55;;
77798;SDS011;66989;50.426;15.352;2023-04-08T07:18:31;10.68;;;6.35;;
77798;SDS011;66989;50.426;15.352;2023-04-08T07:20:56;8.38;;;5.95;;
77798;SDS011;66989;50.426;15.352;2023-04-08T07:23:25;6.93;;;4.50;;
77798;SDS011;66989;50.426;15.352;2023-04-08T07:25:51;5.13;;;2.72;;
77798;SDS011;66989;50.426;15.352;2023-04-08T07:28:21;4.70;;;3.10;;
77798;SDS011;66989;50.426;15.352;2023-04-08T07:30:46;3.97;;;1.65;;
77798;SDS011;66989;50.426;15.352;2023-04-08T07:33:11;4.78;;;2.63;;
77798;SDS011;66989;50.426;15.352;2023-04-08T07:35:37;4.07;;;2.35;;
77798;SDS011;66989;50.426;15.352;2023-04-08T07:38:03;4.07;;;1.95;;
77798;SDS011;66989;50.426;15.352;2023-04-08T07:40:30;4.10;;;2.28;;
77798;SDS011;66989;50.426;15.352;2023-04-08T07:42:55;5.50;;;2.58;;
77798;SDS011;66989;50.426;15.352;2023-04-08T07:45:23;3.20;;;1.83;;
77798;SDS011;66989;50.426;15.352;2023-04-08T07:47:49;4.20;;;2.25;;
77798;SDS011;66989;50.426;15.352;2023-04-08T07:50:14;5.68;;;3.05;;
77798;SDS011;66989;50.426;15.352;2023-04-08T07:52:40;5.38;;;2.80;;
77798;SDS011;66989;50.426;15.352;2023-04-08T07:55:07;7.78;;;2.83;;
77798;SDS011;66989;50.426;15.352;2023-04-08T07:57:32;5.75;;;3.13;;
77798;SDS011;66989;50.426;15.352;2023-04-08T07:59:59;4.50;;;2.10;;
77798;SDS011;66989;50.426;15.352;2023-04-08T08:02:24;3.90;;;2.03;;
77798;SDS011;66989;50.426;15.352;2023-04-08T08:04:50;5.28;;;3.15;;
77798;SDS011;66989;50.426;15.352;2023-04-08T08:07:17;5.20;;;2.95;;
77798;SDS011;66989;50.426;15.352;2023-04-08T08:09:42;6.68;;;3.28;;
77798;SDS011;66989;50.426;15.352;2023-04-08T08:12:08;7.20;;;3.92;;
77798;SDS011;66989;50.426;15.352;2023-04-08T08:14:33;7.18;;;3.38;;
77798;SDS011;66989;50.426;15.352;2023-04-08T08:16:59;5.72;;;3.20;;
77798;SDS011;66989;50.426;15.352;2023-04-08T08:19:25;5.20;;;2.55;;
77798;SDS011;66989;50.426;15.352;2023-04-08T08:21:50;4.53;;;3.00;;
77798;SDS011;66989;50.426;15.352;2023-04-08T08:24:17;6.43;;;3.67;;
77798;SDS011;66989;50.426;15.352;2023-04-08T08:26:44;6.50;;;3.47;;
77798;SDS011;66989;50.426;15.352;2023-04-08T08:29:12;5.07;;;2.75;;
77798;SDS011;66989;50.426;15.352;2023-04-08T08:31:37;5.72;;;3.08;;
77798;SDS011;66989;50.426;15.352;2023-04-08T08:34:03;6.32;;;3.97;;
77798;SDS011;66989;50.426;15.352;2023-04-08T08:36:28;6.10;;;2.90;;
77798;SDS011;66989;50.426;15.352;2023-04-08T08:38:53;6.25;;;3.10;;
77798;SDS011;66989;50.426;15.352;2023-04-08T08:41:21;5.95;;;3.65;;
77798;SDS011;66989;50.426;15.352;2023-04-08T08:43:48;7.10;;;4.32;;
77798;SDS011;66989;50.426;15.352;2023-04-08T08:46:15;6.65;;;4.18;;
77798;SDS011;66989;50.426;15.352;2023-04-08T08:48:41;6.85;;;4.25;;
77798;SDS011;66989;50.426;15.352;2023-04-08T08:51:08;7.05;;;4.05;;
77798;SDS011;66989;50.426;15.352;2023-04-08T08:53:35;9.30;;;4.75;;
77798;SDS011;66989;50.426;15.352;2023-04-08T08:56:01;11.65;;;6.03;;
77798;SDS011;66989;50.426;15.352;2023-04-08T08:58:27;8.95;;;4.70;;
77798;SDS011;66989;50.426;15.352;2023-04-08T09:00:53;8.82;;;4.82;;
77798;SDS011;66989;50.426;15.352;2023-04-08T09:03:20;6.88;;;3.80;;
77798;SDS011;66989;50.426;15.352;2023-04-08T09:05:56;6.10;;;3.80;;
77798;SDS011;66989;50.426;15.352;2023-04-08T09:10:54;7.05;;;4.93;;
77798;SDS011;66989;50.426;15.352;2023-04-08T09:13:21;7.32;;;4.18;;
77798;SDS011;66989;50.426;15.352;2023-04-08T09:15:59;7.18;;;4.13;;
77798;SDS011;66989;50.426;15.352;2023-04-08T09:18:29;6.45;;;4.35;;
77798;SDS011;66989;50.426;15.352;2023-04-08T09:20:55;8.07;;;5.03;;
77798;SDS011;66989;50.426;15.352;2023-04-08T09:23:20;8.18;;;4.05;;
77798;SDS011;66989;50.426;15.352;2023-04-08T09:25:46;9.73;;;4.88;;
77798;SDS011;66989;50.426;15.352;2023-04-08T09:28:20;6.47;;;4.15;;
77798;SDS011;66989;50.426;15.352;2023-04-08T09:30:46;10.20;;;6.35;;
77798;SDS011;66989;50.426;15.352;2023-04-08T09:33:12;8.75;;;4.57;;
77798;SDS011;66989;50.426;15.352;2023-04-08T09:35:37;6.35;;;3.78;;
77798;SDS011;66989;50.426;15.352;2023-04-08T09:38:03;6.00;;;3.80;;
77798;SDS011;66989;50.426;15.352;2023-04-08T09:40:28;6.50;;;4.63;;
77798;SDS011;66989;50.426;15.352;2023-04-08T09:42:57;6.93;;;5.40;;
77798;SDS011;66989;50.426;15.352;2023-04-08T09:45:29;7.13;;;4.32;;
77798;SDS011;66989;50.426;15.352;2023-04-08T09:48:16;6.40;;;4.43;;
77798;SDS011;66989;50.426;15.352;2023-04-08T09:50:48;6.10;;;4.03;;
77798;SDS011;66989;50.426;15.352;2023-04-08T09:53:18;6.07;;;4.63;;
77798;SDS011;66989;50.426;15.352;2023-04-08T09:55:51;7.40;;;5.22;;
77798;SDS011;66989;50.426;15.352;2023-04-08T09:58:33;7.18;;;4.28;;
77798;SDS011;66989;50.426;15.352;2023-04-08T10:01:04;9.30;;;5.13;;
77798;SDS011;66989;50.426;15.352;2023-04-08T10:03:36;8.60;;;5.30;;
77798;SDS011;66989;50.426;15.352;2023-04-08T10:06:10;8.30;;;5.47;;
77798;SDS011;66989;50.426;15.352;2023-04-08T10:08:36;8.63;;;5.82;;
77798;SDS011;66989;50.426;15.352;2023-04-08T10:11:02;14.23;;;10.10;;
77798;SDS011;66989;50.426;15.352;2023-04-08T10:13:28;10.48;;;6.07;;
77798;SDS011;66989;50.426;15.352;2023-04-08T10:18:52;11.88;;;7.18;;
77798;SDS011;66989;50.426;15.352;2023-04-08T10:24:00;15.18;;;8.98;;
77798;SDS011;66989;50.426;15.352;2023-04-08T10:26:51;11.38;;;7.45;;
77798;SDS011;66989;50.426;15.352;2023-04-08T10:31:50;13.18;;;8.45;;
77798;SDS011;66989;50.426;15.352;2023-04-08T10:34:16;16.45;;;9.80;;
77798;SDS011;66989;50.426;15.352;2023-04-08T10:36:42;16.27;;;10.20;;
77798;SDS011;66989;50.426;15.352;2023-04-08T10:39:08;14.75;;;9.63;;
77798;SDS011;66989;50.426;15.352;2023-04-08T10:41:34;12.80;;;7.70;;
77798;SDS011;66989;50.426;15.352;2023-04-08T10:44:13;14.55;;;8.40;;
77798;SDS011;66989;50.426;15.352;2023-04-08T10:46:40;12.88;;;8.45;;
77798;SDS011;66989;50.426;15.352;2023-04-08T10:49:05;14.32;;;8.50;;
77798;SDS011;66989;50.426;15.352;2023-04-08T10:51:32;12.63;;;7.65;;
77798;SDS011;66989;50.426;15.352;2023-04-08T10:54:09;14.55;;;8.00;;
77798;SDS011;66989;50.426;15.352;2023-04-08T10:56:42;15.10;;;9.90;;
77798;SDS011;66989;50.426;15.352;2023-04-08T11:01:38;12.90;;;8.35;;
77798;SDS011;66989;50.426;15.352;2023-04-08T11:04:14;13.43;;;8.52;;
77798;SDS011;66989;50.426;15.352;2023-04-08T11:06:44;13.20;;;8.65;;
77798;SDS011;66989;50.426;15.352;2023-04-08T11:09:11;12.65;;;8.43;;
77798;SDS011;66989;50.426;15.352;2023-04-08T11:11:40;11.93;;;7.65;;
77798;SDS011;66989;50.426;15.352;2023-04-08T11:14:07;12.68;;;8.35;;
77798;SDS011;66989;50.426;15.352;2023-04-08T11:16:33;12.77;;;9.57;;
77798;SDS011;66989;50.426;15.352;2023-04-08T11:19:03;13.88;;;9.20;;
77798;SDS011;66989;50.426;15.352;2023-04-08T11:21:30;11.68;;;9.27;;
77798;SDS011;66989;50.426;15.352;2023-04-08T11:23:59;12.73;;;9.40;;
77798;SDS011;66989;50.426;15.352;2023-04-08T11:26:25;12.57;;;9.15;;
77798;SDS011;66989;50.426;15.352;2023-04-08T11:28:51;11.65;;;7.72;;
77798;SDS011;66989;50.426;15.352;2023-04-08T11:31:18;12.30;;;8.80;;
77798;SDS011;66989;50.426;15.352;2023-04-08T11:33:45;11.60;;;8.88;;
77798;SDS011;66989;50.426;15.352;2023-04-08T11:36:12;12.40;;;9.40;;
77798;SDS011;66989;50.426;15.352;2023-04-08T11:38:38;13.00;;;9.52;;
77798;SDS011;66989;50.426;15.352;2023-04-08T11:41:07;11.63;;;9.95;;
77798;SDS011;66989;50.426;15.352;2023-04-08T11:46:07;14.82;;;10.52;;
77798;SDS011;66989;50.426;15.352;2023-04-08T11:48:34;14.32;;;10.00;;
77798;SDS011;66989;50.426;15.352;2023-04-08T11:51:04;11.20;;;9.35;;
77798;SDS011;66989;50.426;15.352;2023-04-08T11:53:33;12.30;;;9.05;;
77798;SDS011;66989;50.426;15.352;2023-04-08T11:56:14;18.42;;;11.80;;
77798;SDS011;66989;50.426;15.352;2023-04-08T11:58:43;15.10;;;10.25;;
77798;SDS011;66989;50.426;15.352;2023-04-08T12:01:08;17.83;;;12.60;;
77798;SDS011;66989;50.426;15.352;2023-04-08T12:03:34;11.18;;;8.18;;
77798;SDS011;66989;50.426;15.352;2023-04-08T12:05:59;9.25;;;6.90;;
77798;SDS011;66989;50.426;15.352;2023-04-08T12:08:26;10.33;;;7.80;;
77798;SDS011;66989;50.426;15.352;2023-04-08T12:10:52;10.48;;;8.60;;
77798;SDS011;66989;50.426;15.352;2023-04-08T12:13:17;12.52;;;10.43;;
77798;SDS011;66989;50.426;15.352;2023-04-08T12:15:43;11.35;;;8.88;;
77798;SDS011;66989;50.426;15.352;2023-04-08T12:18:09;11.77;;;10.10;;
77798;SDS011;66989;50.426;15.352;2023-04-08T12:20:34;11.32;;;9.30;;
77798;SDS011;66989;50.426;15.352;2023-04-08T12:23:00;12.45;;;11.02;;
77798;SDS011;66989;50.426;15.352;2023-04-08T12:25:25;12.30;;;9.90;;
77798;SDS011;66989;50.426;15.352;2023-04-08T12:27:51;11.25;;;8.60;;
77798;SDS011;66989;50.426;15.352;2023-04-08T12:30:17;11.80;;;9.68;;
77798;SDS011;66989;50.426;15.352;2023-04-08T12:32:42;10.55;;;9.05;;
77798;SDS011;66989;50.426;15.352;2023-04-08T12:35:10;9.25;;;7.35;;
77798;SDS011;66989;50.426;15.352;2023-04-08T12:37:37;11.70;;;8.77;;
77798;SDS011;66989;50.426;15.352;2023-04-08T12:40:02;10.20;;;8.52;;
77798;SDS011;66989;50.426;15.352;2023-04-08T12:42:27;12.90;;;10.52;;
77798;SDS011;66989;50.426;15.352;2023-04-08T12:44:53;13.70;;;10.70;;
77798;SDS011;66989;50.426;15.352;2023-04-08T12:47:18;13.57;;;10.93;;
77798;SDS011;66989;50.426;15.352;2023-04-08T12:49:44;12.95;;;9.63;;
77798;SDS011;66989;50.426;15.352;2023-04-08T12:52:09;13.77;;;10.25;;
77798;SDS011;66989;50.426;15.352;2023-04-08T12:54:35;11.68;;;8.90;;
77798;SDS011;66989;50.426;15.352;2023-04-08T12:57:00;15.70;;;11.57;;
77798;SDS011;66989;50.426;15.352;2023-04-08T13:01:52;11.23;;;8.03;;
77798;SDS011;66989;50.426;15.352;2023-04-08T13:04:17;11.43;;;7.57;;
77798;SDS011;66989;50.426;15.352;2023-04-08T13:06:43;15.13;;;11.10;;
77798;SDS011;66989;50.426;15.352;2023-04-08T13:09:09;10.13;;;7.82;;
77798;SDS011;66989;50.426;15.352;2023-04-08T13:11:34;18.25;;;12.98;;
77798;SDS011;66989;50.426;15.352;2023-04-08T13:14:00;12.95;;;10.10;;
77798;SDS011;66989;50.426;15.352;2023-04-08T13:16:26;10.88;;;7.55;;
77798;SDS011;66989;50.426;15.352;2023-04-08T13:18:51;11.48;;;9.38;;
77798;SDS011;66989;50.426;15.352;2023-04-08T13:21:17;12.13;;;8.73;;
77798;SDS011;66989;50.426;15.352;2023-04-08T13:23:42;12.27;;;10.93;;
77798;SDS011;66989;50.426;15.352;2023-04-08T13:26:08;10.80;;;9.07;;
77798;SDS011;66989;50.426;15.352;2023-04-08T13:28:33;14.30;;;10.73;;
77798;SDS011;66989;50.426;15.352;2023-04-08T13:30:58;10.60;;;8.45;;
77798;SDS011;66989;50.426;15.352;2023-04-08T13:33:24;10.13;;;9.02;;
77798;SDS011;66989;50.426;15.352;2023-04-08T13:35:49;11.73;;;9.93;;
77798;SDS011;66989;50.426;15.352;2023-04-08T13:38:15;9.88;;;7.63;;
77798;SDS011;66989;50.426;15.352;2023-04-08T13:40:40;9.60;;;7.35;;
77798;SDS011;66989;50.426;15.352;2023-04-08T13:43:06;9.77;;;7.85;;
77798;SDS011;66989;50.426;15.352;2023-04-08T13:45:32;9.85;;;8.25;;
77798;SDS011;66989;50.426;15.352;2023-04-08T13:47:57;11.13;;;9.13;;
77798;SDS011;66989;50.426;15.352;2023-04-08T13:50:24;8.88;;;7.35;;
77798;SDS011;66989;50.426;15.352;2023-04-08T13:52:49;9.05;;;7.25;;
77798;SDS011;66989;50.426;15.352;2023-04-08T13:55:15;9.15;;;6.78;;
77798;SDS011;66989;50.426;15.352;2023-04-08T13:57:40;10.02;;;8.25;;
77798;SDS011;66989;50.426;15.352;2023-04-08T14:00:06;17.35;;;11.80;;
77798;SDS011;66989;50.426;15.352;2023-04-08T14:02:32;9.82;;;8.10;;
77798;SDS011;66989;50.426;15.352;2023-04-08T14:05:00;10.27;;;8.60;;
77798;SDS011;66989;50.426;15.352;2023-04-08T14:07:26;10.38;;;7.70;;
77798;SDS011;66989;50.426;15.352;2023-04-08T14:09:53;9.60;;;7.67;;
77798;SDS011;66989;50.426;15.352;2023-04-08T14:12:18;9.48;;;8.27;;
77798;SDS011;66989;50.426;15.352;2023-04-08T14:14:44;8.30;;;6.45;;
77798;SDS011;66989;50.426;15.352;2023-04-08T14:17:09;11.10;;;8.00;;
77798;SDS011;66989;50.426;15.352;2023-04-08T14:19:35;8.77;;;7.00;;
77798;SDS011;66989;50.426;15.352;2023-04-08T14:22:00;10.10;;;6.38;;
77798;SDS011;66989;50.426;15.352;2023-04-08T14:24:26;8.77;;;6.65;;
77798;SDS011;66989;50.426;15.352;2023-04-08T14:26:51;8.40;;;6.97;;
77798;SDS011;66989;50.426;15.352;2023-04-08T14:29:16;9.00;;;7.43;;
77798;SDS011;66989;50.426;15.352;2023-04-08T14:31:44;9.45;;;6.85;;
77798;SDS011;66989;50.426;15.352;2023-04-08T14:34:10;9.02;;;7.38;;
77798;SDS011;66989;50.426;15.352;2023-04-08T14:36:35;8.68;;;5.50;;
77798;SDS011;66989;50.426;15.352;2023-04-08T14:39:01;8.52;;;5.72;;
77798;SDS011;66989;50.426;15.352;2023-04-08T14:41:28;26.77;;;17.30;;
77798;SDS011;66989;50.426;15.352;2023-04-08T14:43:53;10.93;;;8.25;;
77798;SDS011;66989;50.426;15.352;2023-04-08T14:46:19;8.20;;;5.25;;
77798;SDS011;66989;50.426;15.352;2023-04-08T14:48:45;9.35;;;5.95;;